sensor_id;sensor_type;location;lat;lon;timestamp;temperature;humidity
23713;DHT22;12035;49.978;8.298;2023-04-06T00:00:48;10.90;39.40
23713;DHT22;12035;49.978;8.298;2023-04-06T00:05:49;10.80;39.60
23713;DHT22;12035;49.978;8.298;2023-04-06T00:10:47;10.80;39.70
23713;DHT22;12035;49.978;8.298;2023-04-06T00:15:44;10.70;39.60
23713;DHT22;12035;49.978;8.298;2023-04-06T00:20:41;10.70;39.70
23713;DHT22;12035;49.978;8.298;2023-04-06T00:25:40;10.70;39.90
23713;DHT22;12035;49.978;8.298;2023-04-06T00:30:37;10.60;40.00
23713;DHT22;12035;49.978;8.298;2023-04-06T00:35:34;10.50;40.10
23713;DHT22;12035;49.978;8.298;2023-04-06T00:40:31;10.50;40.30
23713;DHT22;12035;49.978;8.298;2023-04-06T00:45:32;10.40;40.50
23713;DHT22;12035;49.978;8.298;2023-04-06T00:50:29;10.30;40.60
23713;DHT22;12035;49.978;8.298;2023-04-06T00:55:26;10.30;40.60
23713;DHT22;12035;49.978;8.298;2023-04-06T01:00:25;10.30;40.90
23713;DHT22;12035;49.978;8.298;2023-04-06T01:05:24;10.20;41.00
23713;DHT22;12035;49.978;8.298;2023-04-06T01:10:24;10.20;41.20
23713;DHT22;12035;49.978;8.298;2023-04-06T01:15:22;10.10;41.40
23713;DHT22;12035;49.978;8.298;2023-04-06T01:20:19;10.00;41.40
23713;DHT22;12035;49.978;8.298;2023-04-06T01:25:18;9.90;41.60
23713;DHT22;12035;49.978;8.298;2023-04-06T01:30:15;9.80;41.90
23713;DHT22;12035;49.978;8.298;2023-04-06T01:35:13;9.80;41.90
23713;DHT22;12035;49.978;8.298;2023-04-06T01:40:11;9.80;42.00
23713;DHT22;12035;49.978;8.298;2023-04-06T01:45:10;9.70;42.10
23713;DHT22;12035;49.978;8.298;2023-04-06T01:50:08;9.60;42.40
23713;DHT22;12035;49.978;8.298;2023-04-06T01:55:06;9.60;42.50
23713;DHT22;12035;49.978;8.298;2023-04-06T02:00:05;9.60;42.50
23713;DHT22;12035;49.978;8.298;2023-04-06T02:05:05;9.50;42.70
23713;DHT22;12035;49.978;8.298;2023-04-06T02:10:03;9.40;42.70
23713;DHT22;12035;49.978;8.298;2023-04-06T02:15:01;9.40;42.90
23713;DHT22;12035;49.978;8.298;2023-04-06T02:19:58;9.30;43.10
23713;DHT22;12035;49.978;8.298;2023-04-06T02:24:57;9.30;43.30
23713;DHT22;12035;49.978;8.298;2023-04-06T02:29:54;9.20;43.40
23713;DHT22;12035;49.978;8.298;2023-04-06T02:34:51;9.20;43.50
23713;DHT22;12035;49.978;8.298;2023-04-06T02:39:48;9.20;43.50
23713;DHT22;12035;49.978;8.298;2023-04-06T02:44:47;9.10;43.60
23713;DHT22;12035;49.978;8.298;2023-04-06T02:49:44;9.00;43.80
23713;DHT22;12035;49.978;8.298;2023-04-06T02:54:41;9.00;44.00
23713;DHT22;12035;49.978;8.298;2023-04-06T02:59:39;8.90;44.10
23713;DHT22;12035;49.978;8.298;2023-04-06T03:04:38;8.90;44.20
23713;DHT22;12035;49.978;8.298;2023-04-06T03:09:37;8.80;44.50
23713;DHT22;12035;49.978;8.298;2023-04-06T03:14:34;8.80;44.60
23713;DHT22;12035;49.978;8.298;2023-04-06T03:19:31;8.70;44.40
23713;DHT22;12035;49.978;8.298;2023-04-06T03:24:30;8.70;44.70
23713;DHT22;12035;49.978;8.298;2023-04-06T03:29:27;8.60;44.90
23713;DHT22;12035;49.978;8.298;2023-04-06T03:34:24;8.60;44.90
23713;DHT22;12035;49.978;8.298;2023-04-06T03:39:21;8.60;45.00
23713;DHT22;12035;49.978;8.298;2023-04-06T03:44:19;8.60;45.10
23713;DHT22;12035;49.978;8.298;2023-04-06T03:49:16;8.50;45.10
23713;DHT22;12035;49.978;8.298;2023-04-06T03:54:13;8.50;45.20
23713;DHT22;12035;49.978;8.298;2023-04-06T03:59:10;8.40;45.40
23713;DHT22;12035;49.978;8.298;2023-04-06T04:04:12;8.30;45.50
23713;DHT22;12035;49.978;8.298;2023-04-06T04:09:09;8.20;46.00
23713;DHT22;12035;49.978;8.298;2023-04-06T04:14:06;8.20;45.90
23713;DHT22;12035;49.978;8.298;2023-04-06T04:19:03;8.20;45.90
23713;DHT22;12035;49.978;8.298;2023-04-06T04:24:01;8.10;46.10
23713;DHT22;12035;49.978;8.298;2023-04-06T04:28:58;8.10;46.30
23713;DHT22;12035;49.978;8.298;2023-04-06T04:33:55;8.10;46.40
23713;DHT22;12035;49.978;8.298;2023-04-06T04:38:52;8.00;46.40
23713;DHT22;12035;49.978;8.298;2023-04-06T04:43:51;8.00;46.50
23713;DHT22;12035;49.978;8.298;2023-04-06T04:48:48;8.00;46.60
23713;DHT22;12035;49.978;8.298;2023-04-06T04:53:45;7.90;46.50
23713;DHT22;12035;49.978;8.298;2023-04-06T04:58:42;7.90;46.70
23713;DHT22;12035;49.978;8.298;2023-04-06T05:03:40;7.90;46.90
23713;DHT22;12035;49.978;8.298;2023-04-06T05:08:38;7.90;47.30
23713;DHT22;12035;49.978;8.298;2023-04-06T05:13:35;7.90;47.40
23713;DHT22;12035;49.978;8.298;2023-04-06T05:18:32;8.00;47.70
23713;DHT22;12035;49.978;8.298;2023-04-06T05:23:30;8.20;48.00
23713;DHT22;12035;49.978;8.298;2023-04-06T05:28:27;8.60;48.30
23713;DHT22;12035;49.978;8.298;2023-04-06T05:33:25;9.10;48.30
23713;DHT22;12035;49.978;8.298;2023-04-06T05:38:22;9.60;48.00
23713;DHT22;12035;49.978;8.298;2023-04-06T05:43:21;10.20;47.90
23713;DHT22;12035;49.978;8.298;2023-04-06T05:48:18;10.90;48.10
23713;DHT22;12035;49.978;8.298;2023-04-06T05:53:15;11.60;47.50
23713;DHT22;12035;49.978;8.298;2023-04-06T05:58:13;12.30;47.20
23713;DHT22;12035;49.978;8.298;2023-04-06T06:03:12;13.00;46.20
23713;DHT22;12035;49.978;8.298;2023-04-06T06:08:10;13.60;44.80
23713;DHT22;12035;49.978;8.298;2023-04-06T06:13:12;14.00;43.20
23713;DHT22;12035;49.978;8.298;2023-04-06T06:18:10;14.30;42.40
23713;DHT22;12035;49.978;8.298;2023-04-06T06:23:08;14.50;41.80
23713;DHT22;12035;49.978;8.298;2023-04-06T06:28:05;14.80;40.50
23713;DHT22;12035;49.978;8.298;2023-04-06T06:33:02;15.10;40.30
23713;DHT22;12035;49.978;8.298;2023-04-06T06:38:01;15.40;39.50
23713;DHT22;12035;49.978;8.298;2023-04-06T06:42:58;15.80;38.90
23713;DHT22;12035;49.978;8.298;2023-04-06T06:47:55;16.10;38.00
23713;DHT22;12035;49.978;8.298;2023-04-06T06:52:52;16.20;37.60
23713;DHT22;12035;49.978;8.298;2023-04-06T06:57:50;16.60;38.00
23713;DHT22;12035;49.978;8.298;2023-04-06T07:02:48;17.00;37.30
23713;DHT22;12035;49.978;8.298;2023-04-06T07:07:45;17.50;36.70
23713;DHT22;12035;49.978;8.298;2023-04-06T07:12:42;17.70;35.90
23713;DHT22;12035;49.978;8.298;2023-04-06T07:17:40;18.20;36.20
23713;DHT22;12035;49.978;8.298;2023-04-06T07:22:39;18.80;36.10
23713;DHT22;12035;49.978;8.298;2023-04-06T07:27:36;19.50;36.40
23713;DHT22;12035;49.978;8.298;2023-04-06T07:32:34;20.20;35.10
23713;DHT22;12035;49.978;8.298;2023-04-06T07:37:32;20.70;33.90
23713;DHT22;12035;49.978;8.298;2023-04-06T07:42:30;21.10;33.40
23713;DHT22;12035;49.978;8.298;2023-04-06T07:47:28;21.40;33.40
23713;DHT22;12035;49.978;8.298;2023-04-06T07:52:25;21.80;32.90
23713;DHT22;12035;49.978;8.298;2023-04-06T07:57:23;22.10;32.00
23713;DHT22;12035;49.978;8.298;2023-04-06T08:02:20;22.00;30.60
23713;DHT22;12035;49.978;8.298;2023-04-06T08:07:17;22.10;31.40
23713;DHT22;12035;49.978;8.298;2023-04-06T08:12:15;22.10;31.30
23713;DHT22;12035;49.978;8.298;2023-04-06T08:17:14;22.10;30.70
23713;DHT22;12035;49.978;8.298;2023-04-06T08:22:11;22.00;29.70
23713;DHT22;12035;49.978;8.298;2023-04-06T08:27:08;21.80;30.10
23713;DHT22;12035;49.978;8.298;2023-04-06T08:32:05;21.80;30.00
23713;DHT22;12035;49.978;8.298;2023-04-06T08:37:04;21.70;30.10
23713;DHT22;12035;49.978;8.298;2023-04-06T08:42:01;21.60;30.20
23713;DHT22;12035;49.978;8.298;2023-04-06T08:46:59;21.60;30.30
23713;DHT22;12035;49.978;8.298;2023-04-06T08:51:57;21.40;29.40
23713;DHT22;12035;49.978;8.298;2023-04-06T08:56:57;21.10;29.70
23713;DHT22;12035;49.978;8.298;2023-04-06T09:01:55;20.90;29.80
23713;DHT22;12035;49.978;8.298;2023-04-06T09:06:53;20.80;29.90
23713;DHT22;12035;49.978;8.298;2023-04-06T09:11:51;20.60;30.10
23713;DHT22;12035;49.978;8.298;2023-04-06T09:16:50;20.50;30.20
23713;DHT22;12035;49.978;8.298;2023-04-06T09:21:47;20.30;30.50
23713;DHT22;12035;49.978;8.298;2023-04-06T09:26:45;20.20;30.60
23713;DHT22;12035;49.978;8.298;2023-04-06T09:31:42;20.10;31.00
23713;DHT22;12035;49.978;8.298;2023-04-06T09:36:41;19.90;31.10
23713;DHT22;12035;49.978;8.298;2023-04-06T09:41:38;19.70;31.20
23713;DHT22;12035;49.978;8.298;2023-04-06T09:46:37;19.50;31.70
23713;DHT22;12035;49.978;8.298;2023-04-06T09:51:37;19.50;32.30
23713;DHT22;12035;49.978;8.298;2023-04-06T09:56:45;19.60;32.30
23713;DHT22;12035;49.978;8.298;2023-04-06T10:01:43;19.70;32.30
23713;DHT22;12035;49.978;8.298;2023-04-06T10:06:42;19.80;32.20
23713;DHT22;12035;49.978;8.298;2023-04-06T10:11:42;19.90;32.50
23713;DHT22;12035;49.978;8.298;2023-04-06T10:16:39;20.00;32.00
23713;DHT22;12035;49.978;8.298;2023-04-06T10:21:37;19.80;32.20
23713;DHT22;12035;49.978;8.298;2023-04-06T10:26:35;19.70;32.10
23713;DHT22;12035;49.978;8.298;2023-04-06T10:31:39;19.60;32.40
23713;DHT22;12035;49.978;8.298;2023-04-06T10:36:39;19.40;32.30
23713;DHT22;12035;49.978;8.298;2023-04-06T10:41:42;19.20;32.40
23713;DHT22;12035;49.978;8.298;2023-04-06T10:46:52;19.20;32.40
23713;DHT22;12035;49.978;8.298;2023-04-06T10:51:52;19.20;32.30
23713;DHT22;12035;49.978;8.298;2023-04-06T10:56:50;19.20;32.70
23713;DHT22;12035;49.978;8.298;2023-04-06T11:01:49;19.30;32.90
23713;DHT22;12035;49.978;8.298;2023-04-06T11:06:47;19.40;32.80
23713;DHT22;12035;49.978;8.298;2023-04-06T11:11:45;19.50;32.30
23713;DHT22;12035;49.978;8.298;2023-04-06T11:16:42;19.40;32.40
23713;DHT22;12035;49.978;8.298;2023-04-06T11:21:42;19.50;32.40
23713;DHT22;12035;49.978;8.298;2023-04-06T11:26:44;19.60;32.30
23713;DHT22;12035;49.978;8.298;2023-04-06T11:31:46;19.70;31.90
23713;DHT22;12035;49.978;8.298;2023-04-06T11:36:47;19.80;31.60
23713;DHT22;12035;49.978;8.298;2023-04-06T11:41:47;19.80;31.20
23713;DHT22;12035;49.978;8.298;2023-04-06T11:46:52;19.80;31.10
23713;DHT22;12035;49.978;8.298;2023-04-06T11:51:51;19.80;31.00
23713;DHT22;12035;49.978;8.298;2023-04-06T11:56:47;19.80;30.90
23713;DHT22;12035;49.978;8.298;2023-04-06T12:01:45;19.80;30.60
23713;DHT22;12035;49.978;8.298;2023-04-06T12:06:43;19.70;30.10
23713;DHT22;12035;49.978;8.298;2023-04-06T12:11:41;19.70;30.30
23713;DHT22;12035;49.978;8.298;2023-04-06T12:16:38;19.60;31.30
23713;DHT22;12035;49.978;8.298;2023-04-06T12:21:36;19.60;30.60
23713;DHT22;12035;49.978;8.298;2023-04-06T12:26:33;19.60;30.30
23713;DHT22;12035;49.978;8.298;2023-04-06T12:31:32;19.60;30.30
23713;DHT22;12035;49.978;8.298;2023-04-06T12:36:29;19.60;30.50
23713;DHT22;12035;49.978;8.298;2023-04-06T12:41:27;19.60;30.00
23713;DHT22;12035;49.978;8.298;2023-04-06T12:46:24;19.60;30.00
23713;DHT22;12035;49.978;8.298;2023-04-06T12:51:23;19.60;29.80
23713;DHT22;12035;49.978;8.298;2023-04-06T12:56:21;19.60;29.60
23713;DHT22;12035;49.978;8.298;2023-04-06T13:01:18;19.50;29.90
23713;DHT22;12035;49.978;8.298;2023-04-06T13:06:20;19.60;29.80
23713;DHT22;12035;49.978;8.298;2023-04-06T13:11:18;19.70;29.60
23713;DHT22;12035;49.978;8.298;2023-04-06T13:16:19;19.60;29.30
23713;DHT22;12035;49.978;8.298;2023-04-06T13:21:17;19.60;29.50
23713;DHT22;12035;49.978;8.298;2023-04-06T13:26:17;19.60;29.20
23713;DHT22;12035;49.978;8.298;2023-04-06T13:31:15;19.40;29.00
23713;DHT22;12035;49.978;8.298;2023-04-06T13:36:12;19.30;29.30
23713;DHT22;12035;49.978;8.298;2023-04-06T13:41:10;19.10;29.30
23713;DHT22;12035;49.978;8.298;2023-04-06T13:46:08;19.00;29.30
23713;DHT22;12035;49.978;8.298;2023-04-06T13:51:10;18.80;29.50
23713;DHT22;12035;49.978;8.298;2023-04-06T13:56:10;18.70;29.50
23713;DHT22;12035;49.978;8.298;2023-04-06T14:01:08;18.70;30.10
23713;DHT22;12035;49.978;8.298;2023-04-06T14:06:10;18.60;29.70
23713;DHT22;12035;49.978;8.298;2023-04-06T14:11:11;18.60;29.60
23713;DHT22;12035;49.978;8.298;2023-04-06T14:16:09;18.60;29.80
23713;DHT22;12035;49.978;8.298;2023-04-06T14:21:06;18.60;29.90
23713;DHT22;12035;49.978;8.298;2023-04-06T14:26:05;18.60;29.50
23713;DHT22;12035;49.978;8.298;2023-04-06T14:31:12;18.60;29.40
23713;DHT22;12035;49.978;8.298;2023-04-06T14:36:11;18.50;29.30
23713;DHT22;12035;49.978;8.298;2023-04-06T14:41:08;18.40;29.40
23713;DHT22;12035;49.978;8.298;2023-04-06T14:46:13;18.30;29.40
23713;DHT22;12035;49.978;8.298;2023-04-06T14:51:11;18.20;29.30
23713;DHT22;12035;49.978;8.298;2023-04-06T14:56:08;18.30;29.20
23713;DHT22;12035;49.978;8.298;2023-04-06T15:01:05;18.30;29.20
23713;DHT22;12035;49.978;8.298;2023-04-06T15:06:12;18.30;29.40
23713;DHT22;12035;49.978;8.298;2023-04-06T15:11:11;18.20;29.50
23713;DHT22;12035;49.978;8.298;2023-04-06T15:16:08;18.10;29.70
23713;DHT22;12035;49.978;8.298;2023-04-06T15:21:07;18.10;29.80
23713;DHT22;12035;49.978;8.298;2023-04-06T15:26:05;18.00;30.00
23713;DHT22;12035;49.978;8.298;2023-04-06T15:31:02;17.90;30.00
23713;DHT22;12035;49.978;8.298;2023-04-06T15:36:08;17.90;30.20
23713;DHT22;12035;49.978;8.298;2023-04-06T15:41:18;17.80;30.30
23713;DHT22;12035;49.978;8.298;2023-04-06T15:46:16;17.70;30.30
23713;DHT22;12035;49.978;8.298;2023-04-06T15:51:14;17.70;30.40
23713;DHT22;12035;49.978;8.298;2023-04-06T15:56:16;17.60;30.40
23713;DHT22;12035;49.978;8.298;2023-04-06T16:01:14;17.50;30.50
23713;DHT22;12035;49.978;8.298;2023-04-06T16:06:14;17.40;30.60
23713;DHT22;12035;49.978;8.298;2023-04-06T16:11:11;17.30;30.80
23713;DHT22;12035;49.978;8.298;2023-04-06T16:16:09;17.20;31.10
23713;DHT22;12035;49.978;8.298;2023-04-06T16:21:12;17.10;31.40
23713;DHT22;12035;49.978;8.298;2023-04-06T16:26:13;17.10;31.90
23713;DHT22;12035;49.978;8.298;2023-04-06T16:31:19;17.10;32.30
23713;DHT22;12035;49.978;8.298;2023-04-06T16:36:22;17.00;32.60
23713;DHT22;12035;49.978;8.298;2023-04-06T16:41:19;16.90;32.90
23713;DHT22;12035;49.978;8.298;2023-04-06T16:46:17;16.80;33.10
23713;DHT22;12035;49.978;8.298;2023-04-06T16:51:14;16.80;33.80
23713;DHT22;12035;49.978;8.298;2023-04-06T16:56:14;16.70;34.00
23713;DHT22;12035;49.978;8.298;2023-04-06T17:01:17;16.50;34.20
23713;DHT22;12035;49.978;8.298;2023-04-06T17:06:16;16.40;34.50
23713;DHT22;12035;49.978;8.298;2023-04-06T17:11:15;16.40;34.70
23713;DHT22;12035;49.978;8.298;2023-04-06T17:16:12;16.30;35.10
23713;DHT22;12035;49.978;8.298;2023-04-06T17:21:09;16.30;35.30
23713;DHT22;12035;49.978;8.298;2023-04-06T17:26:09;16.30;35.60
23713;DHT22;12035;49.978;8.298;2023-04-06T17:31:09;16.20;35.70
23713;DHT22;12035;49.978;8.298;2023-04-06T17:36:07;16.20;36.20
23713;DHT22;12035;49.978;8.298;2023-04-06T17:41:06;16.10;36.70
23713;DHT22;12035;49.978;8.298;2023-04-06T17:46:04;16.00;37.00
23713;DHT22;12035;49.978;8.298;2023-04-06T17:51:03;15.90;38.40
23713;DHT22;12035;49.978;8.298;2023-04-06T17:56:01;15.90;39.10
23713;DHT22;12035;49.978;8.298;2023-04-06T18:01:02;15.70;39.40
23713;DHT22;12035;49.978;8.298;2023-04-06T18:06:10;15.60;40.40
23713;DHT22;12035;49.978;8.298;2023-04-06T18:11:13;15.50;42.10
23713;DHT22;12035;49.978;8.298;2023-04-06T18:16:12;15.20;42.60
23713;DHT22;12035;49.978;8.298;2023-04-06T18:21:13;15.00;43.10
23713;DHT22;12035;49.978;8.298;2023-04-06T18:26:14;14.90;43.60
23713;DHT22;12035;49.978;8.298;2023-04-06T18:31:12;14.70;44.50
23713;DHT22;12035;49.978;8.298;2023-04-06T18:36:10;14.60;45.10
23713;DHT22;12035;49.978;8.298;2023-04-06T18:41:10;14.50;45.60
23713;DHT22;12035;49.978;8.298;2023-04-06T18:46:10;14.30;46.30
23713;DHT22;12035;49.978;8.298;2023-04-06T18:51:09;14.20;46.90
23713;DHT22;12035;49.978;8.298;2023-04-06T18:56:13;14.10;46.80
23713;DHT22;12035;49.978;8.298;2023-04-06T19:01:19;14.20;47.80
23713;DHT22;12035;49.978;8.298;2023-04-06T19:06:17;14.20;48.20
23713;DHT22;12035;49.978;8.298;2023-04-06T19:11:16;14.10;47.70
23713;DHT22;12035;49.978;8.298;2023-04-06T19:16:14;14.10;48.60
23713;DHT22;12035;49.978;8.298;2023-04-06T19:21:15;14.00;48.80
23713;DHT22;12035;49.978;8.298;2023-04-06T19:26:16;14.00;49.50
23713;DHT22;12035;49.978;8.298;2023-04-06T19:31:16;14.00;49.50
23713;DHT22;12035;49.978;8.298;2023-04-06T19:36:14;13.90;50.10
23713;DHT22;12035;49.978;8.298;2023-04-06T19:41:11;13.80;50.30
23713;DHT22;12035;49.978;8.298;2023-04-06T19:46:10;13.70;51.00
23713;DHT22;12035;49.978;8.298;2023-04-06T19:51:09;13.60;51.60
23713;DHT22;12035;49.978;8.298;2023-04-06T19:56:06;13.50;51.50
23713;DHT22;12035;49.978;8.298;2023-04-06T20:01:04;13.50;52.10
23713;DHT22;12035;49.978;8.298;2023-04-06T20:06:03;13.40;52.80
23713;DHT22;12035;49.978;8.298;2023-04-06T20:11:01;13.30;53.40
23713;DHT22;12035;49.978;8.298;2023-04-06T20:15:59;13.20;54.00
23713;DHT22;12035;49.978;8.298;2023-04-06T20:20:57;13.10;54.50
23713;DHT22;12035;49.978;8.298;2023-04-06T20:25:55;13.10;54.80
23713;DHT22;12035;49.978;8.298;2023-04-06T20:30:52;13.10;55.40
23713;DHT22;12035;49.978;8.298;2023-04-06T20:35:55;13.00;55.40
23713;DHT22;12035;49.978;8.298;2023-04-06T20:40:55;13.00;56.20
23713;DHT22;12035;49.978;8.298;2023-04-06T20:45:54;13.00;56.00
23713;DHT22;12035;49.978;8.298;2023-04-06T20:50:54;13.00;56.00
23713;DHT22;12035;49.978;8.298;2023-04-06T20:55:51;13.00;56.40
23713;DHT22;12035;49.978;8.298;2023-04-06T21:00:50;12.90;56.70
23713;DHT22;12035;49.978;8.298;2023-04-06T21:05:51;12.90;56.80
23713;DHT22;12035;49.978;8.298;2023-04-06T21:10:48;12.90;57.50
23713;DHT22;12035;49.978;8.298;2023-04-06T21:15:45;12.80;57.30
23713;DHT22;12035;49.978;8.298;2023-04-06T21:20:44;12.70;57.70
23713;DHT22;12035;49.978;8.298;2023-04-06T21:25:41;12.60;57.90
23713;DHT22;12035;49.978;8.298;2023-04-06T21:30:39;12.60;58.30
23713;DHT22;12035;49.978;8.298;2023-04-06T21:35:37;12.50;58.50
23713;DHT22;12035;49.978;8.298;2023-04-06T21:40:36;12.50;59.00
23713;DHT22;12035;49.978;8.298;2023-04-06T21:45:33;12.50;59.60
23713;DHT22;12035;49.978;8.298;2023-04-06T21:50:30;12.50;59.40
23713;DHT22;12035;49.978;8.298;2023-04-06T21:55:27;12.40;59.80
23713;DHT22;12035;49.978;8.298;2023-04-06T22:00:26;12.40;59.60
23713;DHT22;12035;49.978;8.298;2023-04-06T22:05:23;12.40;60.00
23713;DHT22;12035;49.978;8.298;2023-04-06T22:10:20;12.30;60.40
23713;DHT22;12035;49.978;8.298;2023-04-06T22:15:17;12.30;60.50
23713;DHT22;12035;49.978;8.298;2023-04-06T22:20:16;12.40;60.80
23713;DHT22;12035;49.978;8.298;2023-04-06T22:25:13;12.30;60.80
23713;DHT22;12035;49.978;8.298;2023-04-06T22:30:10;12.30;60.60
23713;DHT22;12035;49.978;8.298;2023-04-06T22:35:08;12.30;60.70
23713;DHT22;12035;49.978;8.298;2023-04-06T22:40:08;12.30;60.90
23713;DHT22;12035;49.978;8.298;2023-04-06T22:45:06;12.30;61.00
23713;DHT22;12035;49.978;8.298;2023-04-06T22:50:05;12.30;62.00
23713;DHT22;12035;49.978;8.298;2023-04-06T22:55:04;12.30;61.40
23713;DHT22;12035;49.978;8.298;2023-04-06T23:00:03;12.20;61.50
23713;DHT22;12035;49.978;8.298;2023-04-06T23:05:01;12.20;62.00
23713;DHT22;12035;49.978;8.298;2023-04-06T23:09:58;12.20;63.00
23713;DHT22;12035;49.978;8.298;2023-04-06T23:14:55;12.10;62.60
23713;DHT22;12035;49.978;8.298;2023-04-06T23:19:54;12.10;63.00
23713;DHT22;12035;49.978;8.298;2023-04-06T23:24:51;12.00;63.00
23713;DHT22;12035;49.978;8.298;2023-04-06T23:29:50;12.10;63.00
23713;DHT22;12035;49.978;8.298;2023-04-06T23:34:47;12.10;63.30
23713;DHT22;12035;49.978;8.298;2023-04-06T23:39:45;12.10;63.10
23713;DHT22;12035;49.978;8.298;2023-04-06T23:44:43;12.10;63.60
23713;DHT22;12035;49.978;8.298;2023-04-06T23:49:40;12.00;63.60
23713;DHT22;12035;49.978;8.298;2023-04-06T23:54:37;12.00;63.90
23713;DHT22;12035;49.978;8.298;2023-04-06T23:59:35;12.00;63.00
